Time;durP1;ratioP1;P1;durP2;ratioP2;P2;SDS_P1;SDS_P2;PMS_P1;PMS_P2;Temp;Humidity;BMP_temperature;BMP_pressure;BME280_temperature;BME280_humidity;BME280_pressure;Samples;Min_cycle;Max_cycle;Signal;HPM_P1;HPM_P2
2022/07/02 00:00:38;;;;;;;2.00;1.33;;;;;;;10.72;100.00;93704.22;2089600;28;20032;-80
2022/07/02 00:01:39;;;;;;;2.13;1.30;;;;;;;10.65;100.00;93696.25;2097840;28;20140;-79
2022/07/02 00:02:42;;;;;;;1.55;1.45;;;;;;;10.52;100.00;93696.03;2093173;28;20048;-79
2022/07/02 00:03:55;;;;;;;1.95;1.40;;;;;;;10.48;100.00;93692.66;2081751;28;20035;-80
2022/07/02 00:05:03;;;;;;;3.42;1.60;;;;;;;10.51;100.00;93696.44;2074855;28;20105;-79
2022/07/02 00:06:05;;;;;;;2.45;1.60;;;;;;;10.49;100.00;93696.84;2073898;28;20454;-79
2022/07/02 00:07:07;;;;;;;3.00;1.60;;;;;;;10.46;100.00;93694.97;2065557;28;20022;-80
2022/07/02 00:08:09;;;;;;;3.90;1.30;;;;;;;10.50;100.00;93697.63;2073699;28;20049;-81
2022/07/02 00:09:10;;;;;;;1.77;1.40;;;;;;;10.45;100.00;93692.72;2081314;28;20496;-79
2022/07/02 00:10:13;;;;;;;4.50;1.60;;;;;;;10.46;100.00;93694.97;2073306;28;20021;-80
2022/07/02 00:11:15;;;;;;;2.70;1.40;;;;;;;10.49;100.00;93696.06;2081301;28;20032;-80
2022/07/02 00:12:16;;;;;;;3.97;1.80;;;;;;;10.45;100.00;93693.47;2074448;28;20045;-79
2022/07/02 00:13:18;;;;;;;5.18;1.70;;;;;;;10.43;100.00;93695.00;2089630;28;20132;-79
2022/07/02 00:14:19;;;;;;;1.70;1.50;;;;;;;10.31;100.00;93701.63;2089750;28;20024;-79
2022/07/02 00:15:20;;;;;;;1.88;1.50;;;;;;;10.30;100.00;93698.19;2081307;28;20032;-80
2022/07/02 00:16:22;;;;;;;2.95;1.25;;;;;;;10.25;100.00;93695.97;2073145;28;20071;-80
2022/07/02 00:17:27;;;;;;;3.72;1.55;;;;;;;10.17;100.00;93696.41;2087413;28;20028;-81
2022/07/02 00:18:29;;;;;;;7.13;1.92;;;;;;;10.21;100.00;93697.13;2088477;28;20473;-79
2022/07/02 00:19:30;;;;;;;2.30;1.58;;;;;;;10.22;100.00;93685.28;2069985;28;20034;-79
2022/07/02 00:20:32;;;;;;;5.35;1.70;;;;;;;10.17;100.00;93685.72;2065046;28;20037;-79
2022/07/02 00:21:33;;;;;;;2.15;1.38;;;;;;;10.22;100.00;93690.63;2072998;28;20033;-80
2022/07/02 00:22:35;;;;;;;5.50;1.77;;;;;;;10.24;100.00;93691.00;2073066;28;20677;-79
2022/07/02 00:23:36;;;;;;;1.92;1.63;;;;;;;10.21;100.00;93695.22;2073176;28;20021;-80
2022/07/02 00:24:41;;;;;;;1.70;1.40;;;;;;;10.22;100.00;93690.63;2089673;28;20025;-80
2022/07/02 00:25:47;;;;;;;2.60;1.58;;;;;;;10.16;100.00;93689.56;2089339;28;20049;-80
2022/07/02 00:26:54;;;;;;;4.07;1.58;;;;;;;10.17;100.00;93691.06;2082564;28;20048;-79
2022/07/02 00:27:57;;;;;;;2.33;1.65;;;;;;;10.12;100.00;93692.28;2090346;28;20389;-79
2022/07/02 00:29:07;;;;;;;3.88;1.85;;;;;;;10.06;100.00;93693.88;2081517;28;20028;-79
2022/07/02 00:30:08;;;;;;;6.65;1.60;;;;;;;10.03;100.00;93690.06;2067208;28;20142;-79
2022/07/02 00:31:09;;;;;;;2.20;1.48;;;;;;;10.05;100.00;93693.13;2073109;28;20022;-80
2022/07/02 00:32:11;;;;;;;2.85;1.55;;;;;;;10.08;100.00;93696.91;2081013;28;20030;-79
2022/07/02 00:33:16;;;;;;;3.30;1.42;;;;;;;10.01;100.00;93695.06;2082997;28;20099;-80
2022/07/02 00:34:17;;;;;;;8.52;1.90;;;;;;;10.00;100.00;93696.19;2074015;28;20029;-79
2022/07/02 00:35:18;;;;;;;2.65;1.58;;;;;;;10.04;100.00;93696.94;2081383;28;20025;-79
2022/07/02 00:36:22;;;;;;;3.30;1.63;;;;;;;10.01;100.00;93699.66;2079168;28;20033;-79
2022/07/02 00:37:26;;;;;;;3.33;1.83;;;;;;;9.98;100.00;93698.53;2080180;28;20037;-79
2022/07/02 00:38:27;;;;;;;4.32;1.90;;;;;;;9.92;100.00;93696.66;2081219;28;20789;-79
2022/07/02 00:39:28;;;;;;;1.70;1.60;;;;;;;9.90;100.00;93694.41;2081207;28;20033;-80
2022/07/02 00:40:30;;;;;;;2.65;1.65;;;;;;;9.96;100.00;93694.72;2080984;28;20029;-79
2022/07/02 00:41:32;;;;;;;6.05;1.80;;;;;;;9.88;100.00;93693.28;2081696;28;20524;-80
2022/07/02 00:42:36;;;;;;;2.92;1.80;;;;;;;9.96;100.00;93692.06;2081168;28;20099;-80
2022/07/02 00:43:37;;;;;;;2.60;1.88;;;;;;;9.98;100.00;93695.09;2081051;28;20029;-79
2022/07/02 00:44:39;;;;;;;2.80;1.60;;;;;;;9.99;100.00;93694.69;2081280;28;20632;-80
2022/07/02 00:45:40;;;;;;;4.50;1.83;;;;;;;9.98;100.00;93693.19;2080806;28;20120;-79
2022/07/02 00:46:42;;;;;;;4.72;1.80;;;;;;;9.97;100.00;93696.25;2072870;28;20028;-80
2022/07/02 00:47:43;;;;;;;3.30;1.58;;;;;;;9.95;100.00;93679.88;2074002;28;20022;-79
2022/07/02 00:48:44;;;;;;;3.25;2.00;;;;;;;9.88;100.00;93685.25;2083863;28;20064;-79
2022/07/02 00:49:46;;;;;;;3.65;2.00;;;;;;;9.80;100.00;93680.00;2086622;28;20051;-79
2022/07/02 00:50:47;;;;;;;2.65;1.77;;;;;;;9.79;100.00;93680.41;2097313;28;20126;-80
2022/07/02 00:51:48;;;;;;;5.15;2.00;;;;;;;9.64;100.00;93684.34;2097734;28;20047;-79
2022/07/02 00:52:50;;;;;;;5.38;1.80;;;;;;;9.66;100.00;93677.47;2083070;28;20018;-80
2022/07/02 00:53:51;;;;;;;5.28;1.67;;;;;;;9.59;100.00;93680.97;2080140;28;20034;-80
2022/07/02 00:54:52;;;;;;;3.03;1.60;;;;;;;9.51;100.00;93676.84;2093465;28;20024;-80
2022/07/02 00:55:58;;;;;;;2.60;1.60;;;;;;;9.53;100.00;93676.47;2088993;28;20052;-79
2022/07/02 00:56:59;;;;;;;4.97;2.05;;;;;;;9.65;100.00;93680.53;2089144;28;20481;-80
2022/07/02 00:58:01;;;;;;;5.20;1.85;;;;;;;9.71;100.00;93679.72;2085973;28;20025;-79
2022/07/02 00:59:03;;;;;;;4.50;1.80;;;;;;;9.69;100.00;93686.59;2080922;28;20032;-79
2022/07/02 01:00:06;;;;;;;4.53;2.05;;;;;;;9.68;100.00;93685.09;2073935;28;20052;-80
2022/07/02 01:01:07;;;;;;;3.90;1.80;;;;;;;9.65;100.00;93675.19;2073047;28;20025;-79
2022/07/02 01:02:08;;;;;;;5.35;1.70;;;;;;;9.55;100.00;93684.81;2080793;28;20052;-80
2022/07/02 01:03:10;;;;;;;1.98;1.70;;;;;;;9.46;100.00;93685.28;2080932;28;20026;-79
2022/07/02 01:04:14;;;;;;;3.70;1.73;;;;;;;9.38;100.00;93681.13;2072703;28;20056;-80
2022/07/02 01:05:18;;;;;;;5.40;2.30;;;;;;;9.47;100.00;93673.44;2081713;28;20075;-79
2022/07/02 01:06:21;;;;;;;4.53;1.83;;;;;;;9.40;100.00;93680.75;2080665;28;20079;-80
2022/07/02 01:07:24;;;;;;;4.75;1.58;;;;;;;9.39;100.00;93679.97;2081388;28;20021;-79
2022/07/02 01:11:11;;;;;;;3.38;1.75;;;;;;;9.43;100.00;93678.03;2084695;28;20112;-79
2022/07/02 01:12:14;;;;;;;4.40;1.50;;;;;;;9.42;100.00;93684.53;2089268;28;20052;-79
2022/07/02 01:13:17;;;;;;;3.88;2.00;;;;;;;9.42;100.00;93681.88;2084885;28;20029;-80
2022/07/02 01:14:19;;;;;;;5.07;1.70;;;;;;;9.41;100.00;93679.59;2081107;28;20498;-80
2022/07/02 01:15:19;;;;;;;2.72;1.95;;;;;;;9.28;100.00;93677.41;2066630;28;20030;-79
2022/07/02 01:16:20;;;;;;;5.10;1.73;;;;;;;9.25;100.00;93677.44;2080908;28;20474;-79
2022/07/02 01:17:22;;;;;;;3.30;1.45;;;;;;;9.28;100.00;93682.75;2064591;28;20038;-80
2022/07/02 01:18:23;;;;;;;4.13;2.10;;;;;;;9.20;100.00;93683.94;2072803;28;20026;-80
2022/07/02 01:19:24;;;;;;;4.05;1.70;;;;;;;9.19;100.00;93682.44;2064673;28;20525;-80
2022/07/02 01:20:25;;;;;;;4.28;2.17;;;;;;;9.27;100.00;93688.47;2080587;28;20079;-80
2022/07/02 01:21:26;;;;;;;3.53;2.00;;;;;;;9.25;100.00;93686.19;2072660;28;20018;-80
2022/07/02 01:22:38;;;;;;;5.93;1.90;;;;;;;9.28;100.00;93690.75;2079602;28;20029;-80
2022/07/02 01:23:39;;;;;;;4.93;2.10;;;;;;;9.34;100.00;93678.50;2082524;28;20428;-79
2022/07/02 01:24:41;;;;;;;5.47;2.05;;;;;;;9.30;100.00;93682.34;2076025;28;20117;-81
2022/07/02 01:25:52;;;;;;;3.85;1.85;;;;;;;9.15;100.00;93686.28;2064641;28;20107;-80
2022/07/02 01:26:53;;;;;;;6.63;1.90;;;;;;;9.00;100.00;93689.06;2070461;28;20034;-80
2022/07/02 01:27:54;;;;;;;5.88;2.00;;;;;;;8.91;100.00;93685.28;2078265;28;20067;-79
2022/07/02 01:28:55;;;;;;;4.72;2.05;;;;;;;9.00;100.00;93689.06;2072441;28;20437;-80
2022/07/02 01:29:56;;;;;;;6.93;2.47;;;;;;;9.05;100.00;93688.63;2080757;28;20163;-80
2022/07/02 01:30:58;;;;;;;3.28;2.00;;;;;;;9.10;100.00;93686.69;2080630;28;20029;-79
2022/07/02 01:31:58;;;;;;;2.95;2.00;;;;;;;9.14;100.00;93684.78;2072465;28;20021;-80
2022/07/02 01:32:59;;;;;;;4.60;2.60;;;;;;;9.16;100.00;93683.22;2080875;28;20022;-80
2022/07/02 01:34:00;;;;;;;2.50;1.98;;;;;;;9.13;100.00;93685.91;2073168;28;20051;-79
2022/07/02 01:35:08;;;;;;;6.15;2.22;;;;;;;8.93;100.00;93691.00;2067768;28;20026;-80
2022/07/02 01:36:09;;;;;;;3.05;1.90;;;;;;;8.86;100.00;93689.13;2069684;28;20022;-80
2022/07/02 01:37:14;;;;;;;2.88;1.98;;;;;;;8.86;100.00;93683.78;2072431;28;20036;-79
2022/07/02 01:38:15;;;;;;;4.00;2.00;;;;;;;8.92;100.00;93690.25;2073767;28;20028;-80
2022/07/02 01:39:23;;;;;;;3.25;1.90;;;;;;;8.91;100.00;93688.72;2073876;28;20048;-80
2022/07/02 01:40:24;;;;;;;5.40;1.90;;;;;;;8.92;100.00;93690.25;2081538;28;20032;-80
2022/07/02 01:41:40;;;;;;;3.88;2.00;;;;;;;8.91;100.00;93688.72;2080596;28;20025;-79
2022/07/02 01:42:41;;;;;;;6.00;1.90;;;;;;;8.86;100.00;93691.78;2068289;28;20122;-80
2022/07/02 01:43:42;;;;;;;4.25;2.15;;;;;;;8.90;100.00;93683.78;2064280;28;20030;-79
2022/07/02 01:44:44;;;;;;;8.30;2.00;;;;;;;8.80;100.00;93693.34;2064507;28;20022;-80
2022/07/02 01:45:45;;;;;;;5.30;2.30;;;;;;;8.78;100.00;93691.09;2080769;28;20123;-80
2022/07/02 01:46:46;;;;;;;9.13;2.00;;;;;;;8.78;100.00;93683.09;2088783;28;20020;-80
2022/07/02 01:47:47;;;;;;;3.53;1.70;;;;;;;8.78;100.00;93682.31;2087382;28;20681;-80
2022/07/02 01:48:48;;;;;;;6.20;2.20;;;;;;;8.77;100.00;93686.88;2078717;28;20018;-80
2022/07/02 01:49:49;;;;;;;3.80;1.75;;;;;;;8.84;100.00;93678.09;2064391;28;20491;-80
2022/07/02 01:50:50;;;;;;;4.97;2.00;;;;;;;8.80;100.00;93680.78;2064316;28;20078;-79
2022/07/02 01:51:51;;;;;;;3.88;1.98;;;;;;;8.71;100.00;93680.44;2070414;28;20033;-80
2022/07/02 01:52:56;;;;;;;4.50;1.90;;;;;;;8.69;100.00;93680.09;2072493;28;20072;-80
2022/07/02 01:53:57;;;;;;;8.05;2.17;;;;;;;8.67;100.00;93684.28;2073548;28;20076;-79
2022/07/02 01:54:58;;;;;;;4.43;1.92;;;;;;;8.66;100.00;93686.19;2088884;28;20032;-80
2022/07/02 01:55:59;;;;;;;4.05;1.80;;;;;;;8.64;100.00;93685.06;2085471;28;20493;-80
2022/07/02 01:57:01;;;;;;;7.88;1.83;;;;;;;8.65;100.00;93681.25;2072311;28;20053;-80
2022/07/02 01:58:02;;;;;;;5.20;2.10;;;;;;;8.60;100.00;93679.75;2080509;28;20108;-80
2022/07/02 01:59:03;;;;;;;6.65;1.85;;;;;;;8.69;100.00;93680.09;2080429;28;20022;-80
2022/07/02 02:00:11;;;;;;;4.25;2.08;;;;;;;8.78;100.00;93680.41;2088513;28;20542;-80
2022/07/02 02:01:12;;;;;;;4.28;2.00;;;;;;;8.76;100.00;93692.59;2080187;28;20070;-79
2022/07/02 02:02:13;;;;;;;6.40;1.77;;;;;;;8.71;100.00;93682.38;2069074;28;20034;-80
2022/07/02 02:03:14;;;;;;;2.33;1.60;;;;;;;8.71;100.00;93679.69;2074858;28;20575;-79
2022/07/02 02:04:15;;;;;;;5.00;2.28;;;;;;;8.68;100.00;93683.13;2076031;28;20026;-79
2022/07/02 02:05:16;;;;;;;5.38;1.90;;;;;;;8.64;100.00;93682.38;2065304;28;20061;-79
2022/07/02 02:06:17;;;;;;;3.28;1.85;;;;;;;8.54;100.00;93683.97;2066763;28;20022;-79
2022/07/02 02:07:18;;;;;;;4.60;1.83;;;;;;;8.62;100.00;93687.38;2077949;28;20052;-81
2022/07/02 02:08:19;;;;;;;4.20;1.70;;;;;;;8.63;100.00;93686.97;2084627;28;20037;-80
2022/07/02 02:09:20;;;;;;;4.57;1.90;;;;;;;8.61;100.00;93685.84;2086354;28;20028;-79
2022/07/02 02:10:21;;;;;;;4.07;1.75;;;;;;;8.51;100.00;93684.72;2086518;28;20025;-79
2022/07/02 02:11:22;;;;;;;4.57;2.10;;;;;;;8.60;100.00;93681.66;2080708;28;20024;-80
2022/07/02 02:14:05;;;;;;;;;;;;;;;8.68;100.00;93685.78;2126946;27;20194;-84
2022/07/02 02:15:06;;;;;;;3.47;2.00;;;;;;;8.55;100.00;93688.91;2111638;28;19948;-84
2022/07/02 02:16:07;;;;;;;2.35;1.88;;;;;;;8.60;100.00;93676.31;2103097;28;20861;-83
2022/07/02 02:17:08;;;;;;;3.58;1.85;;;;;;;8.52;100.00;93687.03;2111314;28;20077;-83
2022/07/02 02:18:09;;;;;;;6.25;1.90;;;;;;;8.51;100.00;93677.50;2095050;28;20514;-86
2022/07/02 02:19:10;;;;;;;5.05;1.77;;;;;;;8.32;100.00;93694.69;2102930;28;20031;-83
2022/07/02 02:20:11;;;;;;;5.75;2.05;;;;;;;8.24;100.00;93687.09;2103019;28;20024;-86
2022/07/02 02:21:12;;;;;;;3.22;1.90;;;;;;;8.34;100.00;93691.66;2103291;28;20030;-88
2022/07/02 02:22:13;;;;;;;1.95;1.70;;;;;;;8.37;100.00;93677.56;2094695;28;20036;-84
2022/07/02 02:23:14;;;;;;;2.45;1.52;;;;;;;8.37;100.00;93676.81;2094724;28;20017;-86
2022/07/02 02:24:15;;;;;;;2.75;1.80;;;;;;;8.44;100.00;93682.88;2095019;28;20028;-85
2022/07/02 02:25:16;;;;;;;5.93;1.70;;;;;;;8.33;100.00;93688.19;2091876;28;20020;-85
2022/07/02 02:26:17;;;;;;;7.65;1.98;;;;;;;8.26;100.00;93687.50;2102934;28;20550;-87
2022/07/02 02:27:18;;;;;;;5.70;1.70;;;;;;;8.26;100.00;93682.16;2111597;28;20027;-88
2022/07/02 02:28:20;;;;;;;4.45;2.17;;;;;;;8.29;100.00;93681.38;2102957;28;20031;-85
2022/07/02 02:29:22;;;;;;;3.08;1.90;;;;;;;8.29;100.00;93684.03;2086691;28;20056;-86
2022/07/02 02:30:23;;;;;;;4.55;1.85;;;;;;;8.32;100.00;93685.94;2099334;28;20089;-83
2022/07/02 02:31:24;;;;;;;2.65;2.03;;;;;;;8.35;100.00;93679.09;2109733;28;20058;-84
2022/07/02 02:32:24;;;;;;;3.50;1.80;;;;;;;8.29;100.00;93682.13;2103223;28;20032;-88
2022/07/02 02:33:25;;;;;;;4.35;2.10;;;;;;;8.27;100.00;93684.44;2094589;28;20106;-85
2022/07/02 02:34:26;;;;;;;3.58;1.75;;;;;;;8.19;100.00;93679.53;2094829;28;20029;-86
2022/07/02 02:35:27;;;;;;;4.97;1.80;;;;;;;8.21;100.00;93690.53;2094247;28;20032;-85
2022/07/02 02:36:29;;;;;;;3.45;1.55;;;;;;;8.19;100.00;93690.16;2086414;28;20029;-87
2022/07/02 02:37:30;;;;;;;3.95;1.73;;;;;;;8.16;100.00;93682.94;2103257;28;20385;-85
2022/07/02 02:38:31;;;;;;;3.33;1.80;;;;;;;8.13;100.00;93683.72;2103081;28;20035;-83
2022/07/02 02:39:34;;;;;;;7.40;2.00;;;;;;;8.14;100.00;93685.25;2086439;28;20576;-86
2022/07/02 02:40:35;;;;;;;4.07;1.65;;;;;;;8.14;100.00;93680.69;2094492;28;20028;-88
2022/07/02 02:41:36;;;;;;;3.92;1.98;;;;;;;8.08;100.00;93684.91;2090609;28;20025;-87
2022/07/02 02:42:36;;;;;;;2.92;2.00;;;;;;;8.01;100.00;93690.22;2094678;28;20028;-83
2022/07/02 02:43:38;;;;;;;2.83;2.08;;;;;;;8.03;100.00;93686.06;2086409;28;20401;-87
2022/07/02 02:44:38;;;;;;;4.97;1.98;;;;;;;8.14;100.00;93680.69;2094858;28;20021;-85
2022/07/02 02:45:39;;;;;;;5.43;1.90;;;;;;;8.08;100.00;93677.66;2102862;28;20028;-86
2022/07/02 02:46:40;;;;;;;3.17;1.90;;;;;;;8.06;100.00;93679.19;2094275;28;20119;-87
2022/07/02 02:47:41;;;;;;;2.47;1.80;;;;;;;8.04;100.00;93684.16;2089901;28;20029;-85
2022/07/02 02:48:42;;;;;;;7.18;2.30;;;;;;;8.03;100.00;93680.72;2094636;28;20037;-84
2022/07/02 02:49:43;;;;;;;3.25;1.90;;;;;;;8.01;100.00;93682.25;2086273;28;20033;-85
2022/07/02 02:50:44;;;;;;;2.90;2.10;;;;;;;8.03;100.00;93683.38;2102825;28;20365;-88
2022/07/02 02:51:45;;;;;;;3.03;2.00;;;;;;;8.10;100.00;93682.59;2102545;28;20115;-84
2022/07/02 02:52:46;;;;;;;2.88;2.00;;;;;;;8.01;100.00;93688.31;2094494;28;20031;-89
2022/07/02 02:53:48;;;;;;;7.25;2.17;;;;;;;8.00;100.00;93678.06;2094485;28;20049;-89
2022/07/02 02:54:49;;;;;;;3.17;2.13;;;;;;;8.01;100.00;93679.56;2086728;28;20021;-87
2022/07/02 02:55:51;;;;;;;4.72;2.00;;;;;;;7.92;100.00;93674.66;2090830;28;20029;-85
2022/07/02 02:56:52;;;;;;;5.82;2.30;;;;;;;7.95;100.00;93676.56;2094043;28;20031;-86
2022/07/02 02:57:52;;;;;;;4.50;2.22;;;;;;;7.96;100.00;93678.06;2086333;28;20469;-89
2022/07/02 02:58:53;;;;;;;14.40;2.65;;;;;;;7.99;100.00;93676.53;2094349;28;20435;-87
2022/07/02 02:59:54;;;;;;;2.22;1.98;;;;;;;8.03;100.00;93677.28;2086344;28;20067;-84
2022/07/02 03:00:55;;;;;;;8.63;2.45;;;;;;;7.99;100.00;93676.53;2086340;28;20033;-84
2022/07/02 03:01:56;;;;;;;4.75;2.50;;;;;;;8.00;100.00;93672.75;2094486;28;20060;-88
2022/07/02 03:02:57;;;;;;;5.40;2.33;;;;;;;7.96;100.00;93680.72;2094289;28;20041;-88
2022/07/02 03:03:58;;;;;;;6.68;2.45;;;;;;;7.90;100.00;93681.50;2086214;28;20556;-86
2022/07/02 03:04:59;;;;;;;5.45;2.63;;;;;;;7.85;100.00;93673.91;2086088;28;20025;-87
2022/07/02 03:06:00;;;;;;;8.40;3.22;;;;;;;7.87;100.00;93674.31;2086215;28;20102;-87
2022/07/02 03:07:01;;;;;;;4.63;2.30;;;;;;;7.77;100.00;93673.16;2086271;28;20083;-84
2022/07/02 03:08:02;;;;;;;3.42;2.45;;;;;;;7.81;100.00;93664.06;2102094;28;20031;-85
2022/07/02 03:09:03;;;;;;;3.58;2.35;;;;;;;7.83;100.00;93677.72;2102339;28;20028;-85
2022/07/02 03:10:05;;;;;;;4.95;2.10;;;;;;;7.88;100.00;93668.59;2086260;28;20185;-88
2022/07/02 03:11:06;;;;;;;2.25;2.05;;;;;;;7.90;100.00;93666.31;2070069;28;20057;-85
2022/07/02 03:12:08;;;;;;;2.70;2.33;;;;;;;7.83;100.00;93668.97;2094294;28;20025;-86
2022/07/02 03:13:08;;;;;;;3.97;2.03;;;;;;;7.74;100.00;93671.28;2094029;28;20021;-85
2022/07/02 03:14:09;;;;;;;4.93;2.50;;;;;;;7.78;100.00;93670.13;2085754;28;20045;-89
2022/07/02 03:15:10;;;;;;;9.80;2.90;;;;;;;7.83;100.00;93674.31;2086105;28;20459;-86
2022/07/02 03:16:12;;;;;;;3.05;2.50;;;;;;;7.91;100.00;93672.38;2094407;28;20033;-88
2022/07/02 03:17:12;;;;;;;4.90;2.63;;;;;;;7.95;100.00;93667.81;2093869;28;20025;-87
2022/07/02 03:18:13;;;;;;;3.95;2.30;;;;;;;8.01;100.00;93664.38;2082944;28;20032;-88
2022/07/02 03:19:14;;;;;;;8.82;2.42;;;;;;;7.95;100.00;93663.25;2086299;28;20246;-83
2022/07/02 03:20:15;;;;;;;2.92;2.10;;;;;;;7.84;100.00;93670.50;2094507;28;20063;-85
2022/07/02 03:21:16;;;;;;;3.15;2.40;;;;;;;7.80;100.00;93672.41;2102865;28;20051;-88
2022/07/02 03:22:18;;;;;;;3.40;2.10;;;;;;;7.79;100.00;93671.66;2094497;28;20028;-88
2022/07/02 03:23:19;;;;;;;2.90;1.98;;;;;;;7.81;100.00;93671.25;2093853;28;20021;-89
2022/07/02 03:24:20;;;;;;;7.78;2.33;;;;;;;7.74;100.00;93664.06;2102731;28;20035;-85
2022/07/02 03:25:21;;;;;;;6.20;2.22;;;;;;;7.69;100.00;93672.44;2089238;28;20036;-87
2022/07/02 03:26:22;;;;;;;5.78;2.25;;;;;;;7.72;100.00;93670.91;2088974;28;20025;-86
2022/07/02 03:27:24;;;;;;;2.60;2.03;;;;;;;7.76;100.00;93672.41;2089153;28;20037;-87
2022/07/02 03:28:26;;;;;;;3.03;1.95;;;;;;;7.65;100.00;93671.69;2096892;28;20028;-83
2022/07/02 03:29:27;;;;;;;3.15;1.83;;;;;;;7.72;100.00;93682.28;2080594;28;20031;-84
2022/07/02 03:30:28;;;;;;;5.63;2.10;;;;;;;7.73;100.00;93675.84;2088607;28;20083;-84
2022/07/02 03:31:29;;;;;;;4.25;2.05;;;;;;;7.77;100.00;93678.47;2097082;28;20023;-85
2022/07/02 03:32:31;;;;;;;4.82;2.60;;;;;;;7.70;100.00;93683.84;2088639;28;20051;-90
2022/07/02 03:33:32;;;;;;;3.30;2.20;;;;;;;7.76;100.00;93690.28;2080651;28;20525;-86
2022/07/02 03:34:33;;;;;;;5.10;2.03;;;;;;;7.68;100.00;93686.88;2080025;28;20364;-85
2022/07/02 03:35:33;;;;;;;5.05;2.15;;;;;;;7.70;100.00;93683.84;2079883;28;20037;-89
2022/07/02 03:36:34;;;;;;;3.78;2.10;;;;;;;7.70;100.00;93684.59;2080580;28;20029;-89
2022/07/02 03:37:35;;;;;;;2.65;2.10;;;;;;;7.76;100.00;93682.28;2096942;28;20020;-86
2022/07/02 03:38:36;;;;;;;2.63;1.98;;;;;;;7.76;100.00;93679.63;2097059;28;20101;-86
2022/07/02 03:39:37;;;;;;;3.33;1.88;;;;;;;7.75;100.00;93689.53;2088339;28;20029;-85
2022/07/02 03:40:38;;;;;;;4.75;2.33;;;;;;;7.79;100.00;93689.53;2088451;28;20025;-88
2022/07/02 03:41:39;;;;;;;3.20;2.20;;;;;;;7.78;100.00;93688.00;2096925;28;20549;-86
2022/07/02 03:42:40;;;;;;;4.22;2.10;;;;;;;7.64;100.00;93691.44;2088806;28;20028;-85
2022/07/02 03:43:41;;;;;;;2.75;1.90;;;;;;;7.55;100.00;93688.41;2088879;28;20028;-88
2022/07/02 03:44:42;;;;;;;3.85;2.45;;;;;;;7.68;100.00;93683.44;2088723;28;20029;-86
2022/07/02 03:45:43;;;;;;;5.97;2.28;;;;;;;7.62;100.00;93683.06;2079966;28;20482;-87
2022/07/02 03:46:44;;;;;;;3.65;2.20;;;;;;;7.60;100.00;93679.28;2088637;28;20544;-88
2022/07/02 03:47:45;;;;;;;9.02;2.50;;;;;;;7.66;100.00;93675.84;2083315;28;20377;-83
2022/07/02 03:48:46;;;;;;;4.20;2.22;;;;;;;7.72;100.00;93684.94;2075087;28;20359;-87
2022/07/02 03:49:47;;;;;;;4.97;2.00;;;;;;;7.79;100.00;93681.53;2088683;28;20553;-84
2022/07/02 03:50:48;;;;;;;5.90;2.35;;;;;;;7.78;100.00;93691.44;2080019;28;20109;-85
2022/07/02 03:51:49;;;;;;;4.68;1.95;;;;;;;7.76;100.00;93690.28;2080367;28;20231;-86
2022/07/02 03:52:50;;;;;;;2.83;2.10;;;;;;;7.70;100.00;93691.81;2088551;28;20027;-86
2022/07/02 03:53:51;;;;;;;5.70;2.08;;;;;;;7.67;100.00;93698.66;2080254;28;20025;-84
2022/07/02 03:54:52;;;;;;;4.45;2.38;;;;;;;7.71;100.00;93696.00;2080363;28;20040;-84
2022/07/02 03:55:53;;;;;;;3.63;2.40;;;;;;;7.71;100.00;93685.34;2079830;28;20025;-88
2022/07/02 03:56:54;;;;;;;3.75;1.90;;;;;;;7.73;100.00;93693.72;2088543;28;20060;-88
2022/07/02 03:57:55;;;;;;;3.67;2.15;;;;;;;7.68;100.00;93689.56;2088718;28;20074;-86
2022/07/02 03:58:56;;;;;;;4.88;2.17;;;;;;;7.64;100.00;93691.44;2080470;28;20037;-85
2022/07/02 03:59:57;;;;;;;2.97;1.90;;;;;;;7.63;100.00;93695.22;2096865;28;20485;-88
2022/07/02 04:00:58;;;;;;;2.97;2.30;;;;;;;7.54;100.00;93697.53;2096574;28;20101;-89
2022/07/02 04:01:59;;;;;;;5.32;2.15;;;;;;;7.51;100.00;93695.66;2096772;28;20028;-87
2022/07/02 04:03:00;;;;;;;5.90;2.53;;;;;;;7.63;100.00;93691.81;2088355;28;20040;-84
2022/07/02 04:04:01;;;;;;;2.25;1.83;;;;;;;7.70;100.00;93700.56;2080202;28;20055;-87
2022/07/02 04:05:02;;;;;;;3.42;2.55;;;;;;;7.70;100.00;93697.13;2079980;28;20025;-87
2022/07/02 04:06:04;;;;;;;4.13;2.30;;;;;;;7.72;100.00;93703.59;2088300;28;20119;-88
2022/07/02 04:07:05;;;;;;;3.90;2.08;;;;;;;7.87;100.00;93708.91;2088316;28;20028;-87
2022/07/02 04:08:06;;;;;;;4.97;2.40;;;;;;;7.83;100.00;93701.66;2096879;28;20025;-87
2022/07/02 04:09:07;;;;;;;4.88;2.63;;;;;;;7.95;100.00;93705.09;2088401;28;20025;-85
2022/07/02 04:10:08;;;;;;;2.83;2.50;;;;;;;7.93;100.00;93707.34;2088585;28;20024;-85
2022/07/02 04:11:09;;;;;;;2.72;2.53;;;;;;;7.91;100.00;93710.41;2096512;28;20377;-85
2022/07/02 04:12:10;;;;;;;7.30;3.20;;;;;;;7.88;100.00;93703.19;2088157;28;20025;-85
2022/07/02 04:13:12;;;;;;;4.65;2.67;;;;;;;7.96;100.00;93709.25;2096577;28;20016;-86
2022/07/02 04:14:13;;;;;;;3.40;2.95;;;;;;;7.89;100.00;93696.72;2080332;28;20057;-85
2022/07/02 04:15:14;;;;;;;4.15;2.60;;;;;;;7.99;100.00;93697.81;2080394;28;20025;-86
2022/07/02 04:16:15;;;;;;;3.33;2.78;;;;;;;8.01;100.00;93696.31;2088269;28;20025;-87
2022/07/02 04:17:16;;;;;;;3.50;2.67;;;;;;;7.93;100.00;93700.13;2103196;28;20669;-87
2022/07/02 04:18:18;;;;;;;7.18;2.92;;;;;;;7.96;100.00;93703.94;2093757;28;20723;-87
2022/07/02 04:19:19;;;;;;;4.88;2.63;;;;;;;8.01;100.00;93703.53;2080669;28;20029;-86
2022/07/02 04:20:20;;;;;;;4.35;2.65;;;;;;;7.99;100.00;93703.94;2080217;28;20055;-88
2022/07/02 04:21:21;;;;;;;4.25;2.70;;;;;;;7.89;100.00;93707.34;2088460;28;20064;-84
2022/07/02 04:22:22;;;;;;;2.85;2.55;;;;;;;7.88;100.00;93700.53;2088286;28;20040;-86
2022/07/02 04:23:23;;;;;;;3.08;2.60;;;;;;;7.94;100.00;93708.88;2088132;28;20102;-87
2022/07/02 04:24:24;;;;;;;6.13;2.22;;;;;;;7.93;100.00;93708.13;2088292;28;20024;-87
2022/07/02 04:25:25;;;;;;;2.35;1.95;;;;;;;7.90;100.00;93708.13;2088305;28;20033;-89
2022/07/02 04:26:26;;;;;;;2.72;2.20;;;;;;;7.93;100.00;93710.03;2105044;28;20056;-86
2022/07/02 04:27:27;;;;;;;3.17;2.25;;;;;;;7.93;100.00;93702.78;2096699;28;20059;-84
2022/07/02 04:28:28;;;;;;;3.72;2.20;;;;;;;7.97;100.00;93708.09;2087933;28;20031;-84
2022/07/02 04:29:29;;;;;;;2.83;2.03;;;;;;;8.03;100.00;93710.00;2086991;28;20456;-87
2022/07/02 04:30:30;;;;;;;4.70;2.08;;;;;;;8.11;100.00;93707.31;2095097;28;20125;-86
2022/07/02 04:31:31;;;;;;;3.03;1.90;;;;;;;8.15;100.00;93714.16;2095941;28;20023;-84
2022/07/02 04:32:32;;;;;;;4.63;2.40;;;;;;;8.17;100.00;93709.22;2074655;28;20717;-86
2022/07/02 04:33:33;;;;;;;3.28;1.98;;;;;;;8.18;100.00;93705.41;2065576;28;20068;-89
2022/07/02 04:34:34;;;;;;;3.53;2.22;;;;;;;8.15;100.00;93705.41;2065628;28;20026;-86
2022/07/02 04:35:35;;;;;;;4.72;2.70;;;;;;;8.20;100.00;93708.41;2081533;28;20067;-85
2022/07/02 04:36:37;;;;;;;6.80;2.55;;;;;;;8.23;100.00;93707.66;2089046;28;20120;-86
2022/07/02 04:37:38;;;;;;;2.78;2.45;;;;;;;8.25;100.00;93700.06;2073222;28;20026;-86
2022/07/02 04:38:39;;;;;;;2.55;2.35;;;;;;;8.29;100.00;93697.34;2081144;28;20021;-83
2022/07/02 04:39:40;;;;;;;3.55;2.70;;;;;;;8.32;100.00;93709.91;2073415;28;20049;-85
2022/07/02 04:40:41;;;;;;;4.40;2.90;;;;;;;8.34;100.00;93704.97;2089657;28;20025;-86
2022/07/02 04:41:42;;;;;;;3.95;2.50;;;;;;;8.33;100.00;93709.50;2081132;28;20377;-85
2022/07/02 04:42:43;;;;;;;3.97;2.75;;;;;;;8.41;100.00;93712.19;2081253;28;20092;-87
2022/07/02 04:43:44;;;;;;;3.38;3.08;;;;;;;8.41;100.00;93709.53;2073084;28;20026;-85
2022/07/02 04:44:45;;;;;;;5.60;3.28;;;;;;;8.41;100.00;93710.28;2082540;28;20021;-86
2022/07/02 04:45:46;;;;;;;3.97;3.60;;;;;;;8.43;100.00;93708.00;2081183;28;20474;-88
2022/07/02 04:46:47;;;;;;;5.80;3.80;;;;;;;8.48;100.00;93712.94;2097862;28;20032;-87
2022/07/02 04:47:48;;;;;;;3.47;3.17;;;;;;;8.49;100.00;93717.09;2081685;28;20028;-87
2022/07/02 04:48:50;;;;;;;7.82;3.28;;;;;;;8.56;100.00;93714.41;2098039;28;20028;-87
2022/07/02 04:49:51;;;;;;;3.38;3.08;;;;;;;8.59;100.00;93704.88;2101701;28;20077;-89
2022/07/02 04:50:51;;;;;;;3.78;3.35;;;;;;;8.59;100.00;93710.19;2089603;28;20028;-89
2022/07/02 04:51:53;;;;;;;7.60;3.65;;;;;;;8.60;100.00;93703.72;2089569;28;20447;-87
2022/07/02 04:52:54;;;;;;;4.05;2.97;;;;;;;8.60;100.00;93705.63;2089511;28;20032;-88
2022/07/02 04:53:54;;;;;;;4.35;3.33;;;;;;;8.63;100.00;93705.63;2081368;28;20029;-86